createdAt,value
2023-04-17T00:01:39.872Z,27.37
2023-04-17T00:04:11.042Z,27.43
2023-04-17T00:06:38.494Z,29.80
2023-04-17T00:09:06.011Z,27.57
2023-04-17T00:11:33.137Z,30.33
2023-04-17T00:14:00.184Z,28.03
2023-04-17T00:16:27.424Z,28.53
2023-04-17T00:18:57.655Z,26.97
2023-04-17T00:21:24.708Z,28.53
2023-04-17T00:23:51.742Z,28.70
2023-04-17T00:26:19.611Z,26.60
2023-04-17T00:28:51.718Z,27.30
2023-04-17T00:31:18.946Z,25.97
2023-04-17T00:33:46.424Z,25.17
2023-04-17T00:36:15.268Z,23.97
2023-04-17T00:38:42.416Z,27.03
2023-04-17T00:41:09.460Z,27.93
2023-04-17T00:43:36.585Z,25.07
2023-04-17T00:46:04.510Z,24.13
2023-04-17T00:48:32.091Z,24.13
2023-04-17T00:51:02.280Z,22.93
2023-04-17T00:53:31.493Z,26.30
2023-04-17T00:56:01.736Z,23.90
2023-04-17T00:58:28.908Z,25.83
2023-04-17T01:00:56.009Z,26.73
2023-04-17T01:03:23.461Z,26.27
2023-04-17T01:05:51.725Z,24.60
2023-04-17T01:08:19.236Z,26.03
2023-04-17T01:10:46.311Z,26.30
2023-04-17T01:13:13.393Z,24.33
2023-04-17T01:15:40.452Z,25.60
2023-04-17T01:18:07.659Z,28.37
2023-04-17T01:20:35.034Z,25.50
2023-04-17T01:23:02.189Z,26.93
2023-04-17T01:25:29.320Z,29.37
2023-04-17T01:27:56.977Z,25.97
2023-04-17T01:30:24.128Z,27.40
2023-04-17T01:32:51.449Z,25.93
2023-04-17T01:35:18.510Z,25.70
2023-04-17T01:37:46.669Z,29.30
2023-04-17T01:40:13.843Z,25.97
2023-04-17T01:42:40.920Z,25.73
2023-04-17T01:45:08.359Z,25.80
2023-04-17T01:47:35.600Z,25.43
2023-04-17T01:50:04.024Z,24.30
2023-04-17T01:52:31.182Z,25.80
2023-04-17T01:54:58.250Z,23.90
2023-04-17T01:57:25.336Z,23.63
2023-04-17T01:59:52.387Z,26.13
2023-04-17T02:02:19.527Z,28.00
2023-04-17T02:04:46.890Z,25.37
2023-04-17T02:07:14.017Z,28.30
2023-04-17T02:09:41.363Z,25.97
2023-04-17T02:12:08.424Z,28.03
2023-04-17T02:14:35.667Z,24.63
2023-04-17T02:17:03.336Z,29.27
2023-04-17T02:19:30.529Z,24.87
2023-04-17T02:21:57.564Z,24.80
2023-04-17T02:24:24.838Z,24.13
2023-04-17T02:26:51.882Z,28.80
2023-04-17T02:29:18.951Z,24.47
2023-04-17T02:31:46.311Z,22.57
2023-04-17T02:34:13.512Z,28.80
2023-04-17T02:36:40.598Z,25.00
2023-04-17T02:39:07.781Z,25.50
2023-04-17T02:41:34.825Z,23.80
2023-04-17T02:44:02.141Z,23.30
2023-04-17T02:46:29.359Z,25.73
2023-04-17T02:48:56.394Z,25.03
2023-04-17T02:51:23.472Z,23.53
2023-04-17T02:53:50.603Z,24.63
2023-04-17T02:56:18.062Z,23.57
2023-04-17T02:58:45.516Z,24.87
2023-04-17T03:01:12.806Z,25.20
2023-04-17T03:03:42.513Z,29.73
2023-04-17T03:06:09.988Z,26.30
2023-04-17T03:08:38.302Z,27.20
2023-04-17T03:11:06.129Z,26.37
2023-04-17T03:13:35.512Z,24.40
2023-04-17T03:16:04.555Z,28.00
2023-04-17T03:18:31.913Z,24.67
2023-04-17T03:20:59.172Z,24.17
2023-04-17T03:23:26.187Z,25.47
2023-04-17T03:25:53.381Z,25.13
2023-04-17T03:28:21.889Z,27.73
2023-04-17T03:30:49.622Z,24.43
2023-04-17T03:33:17.122Z,23.87
2023-04-17T03:35:46.128Z,25.20
2023-04-17T03:38:13.171Z,26.57
2023-04-17T03:40:40.361Z,24.47
2023-04-17T03:43:07.387Z,25.03
2023-04-17T03:45:34.500Z,25.40
2023-04-17T03:48:01.776Z,25.33
2023-04-17T03:50:28.893Z,26.13
2023-04-17T03:52:55.973Z,28.33
2023-04-17T03:55:25.105Z,27.80
2023-04-17T03:57:52.158Z,26.60
2023-04-17T04:00:19.402Z,27.40
2023-04-17T04:02:46.733Z,28.30
2023-04-17T04:05:14.012Z,30.67
2023-04-17T04:07:41.183Z,28.43
2023-04-17T04:10:08.538Z,27.80
2023-04-17T04:12:35.576Z,29.63
2023-04-17T04:15:02.684Z,29.77
2023-04-17T04:17:29.787Z,31.70
2023-04-17T04:19:56.851Z,29.07
2023-04-17T04:22:23.999Z,29.60
2023-04-17T04:24:53.584Z,28.80
2023-04-17T04:27:22.623Z,36.00
2023-04-17T04:29:50.216Z,28.70
2023-04-17T04:32:17.374Z,31.10
2023-04-17T04:34:44.633Z,33.63
2023-04-17T04:37:15.447Z,33.27
2023-04-17T04:39:43.183Z,34.97
2023-04-17T04:42:10.400Z,31.57
2023-04-17T04:44:37.496Z,32.63
2023-04-17T04:47:04.621Z,34.60
2023-04-17T04:49:31.726Z,34.40
2023-04-17T04:51:58.810Z,34.73
2023-04-17T04:54:25.863Z,33.87
2023-04-17T04:56:53.008Z,32.30
2023-04-17T04:59:20.207Z,30.47
2023-04-17T05:01:47.742Z,31.23
2023-04-17T05:04:14.890Z,31.60
2023-04-17T05:06:42.066Z,36.10
2023-04-17T05:09:09.182Z,33.23
2023-04-17T05:11:36.551Z,32.27
2023-04-17T05:14:03.729Z,34.77
2023-04-17T05:16:30.921Z,33.40
2023-04-17T05:18:58.102Z,35.50
2023-04-17T05:21:25.287Z,32.77
2023-04-17T05:23:52.328Z,34.67
2023-04-17T05:26:21.931Z,33.37
2023-04-17T05:28:49.020Z,34.07
2023-04-17T05:31:16.802Z,34.83
2023-04-17T05:33:43.942Z,34.97
2023-04-17T05:36:11.190Z,32.63
2023-04-17T05:38:38.258Z,32.90
2023-04-17T05:41:07.379Z,35.17
2023-04-17T05:43:34.591Z,36.60
2023-04-17T05:46:01.820Z,33.03
2023-04-17T05:48:29.232Z,33.93
2023-04-17T05:50:56.712Z,32.53
2023-04-17T05:53:23.791Z,37.67
2023-04-17T05:55:50.958Z,33.53
2023-04-17T05:58:23.824Z,33.90
2023-04-17T06:00:51.793Z,35.73
2023-04-17T06:03:19.495Z,35.10
2023-04-17T06:05:47.514Z,39.90
2023-04-17T06:08:14.630Z,32.07
2023-04-17T06:10:41.804Z,34.50
2023-04-17T06:13:09.224Z,33.90
2023-04-17T06:15:36.486Z,33.87
2023-04-17T06:18:03.649Z,35.23
2023-04-17T06:20:30.806Z,33.07
2023-04-17T06:22:57.851Z,36.90
2023-04-17T06:25:24.959Z,36.33
2023-04-17T06:27:52.034Z,33.00
2023-04-17T06:30:19.133Z,30.97
2023-04-17T06:32:46.259Z,32.30
2023-04-17T06:35:13.449Z,33.83
2023-04-17T06:37:40.494Z,32.27
2023-04-17T06:40:07.928Z,29.43
2023-04-17T06:42:35.494Z,35.67
2023-04-17T06:45:02.583Z,29.77
2023-04-17T06:47:29.836Z,28.80
2023-04-17T06:49:59.688Z,28.83
2023-04-17T06:52:27.187Z,29.57
2023-04-17T06:54:54.736Z,30.90
2023-04-17T06:57:22.160Z,36.07
2023-04-17T06:59:49.276Z,28.63
2023-04-17T07:02:16.469Z,31.77
2023-04-17T07:04:43.725Z,32.83
2023-04-17T07:07:11.613Z,31.97
2023-04-17T07:09:39.001Z,30.43
2023-04-17T07:12:06.181Z,35.67
2023-04-17T07:14:33.510Z,29.63
2023-04-17T07:17:00.632Z,33.13
2023-04-17T07:19:27.743Z,30.07
2023-04-17T07:21:54.842Z,30.50
2023-04-17T07:24:21.947Z,29.80
2023-04-17T07:26:49.630Z,30.60
2023-04-17T07:29:16.888Z,31.50
2023-04-17T07:31:44.379Z,27.90
2023-04-17T07:34:11.665Z,29.10
2023-04-17T07:36:38.796Z,27.00
2023-04-17T07:39:07.916Z,27.07
2023-04-17T07:41:34.966Z,27.53
2023-04-17T07:44:03.612Z,28.37
2023-04-17T07:46:30.778Z,24.20
2023-04-17T07:48:57.853Z,23.30
2023-04-17T07:51:25.795Z,25.83
2023-04-17T07:53:52.920Z,25.47
2023-04-17T07:56:19.971Z,22.07
2023-04-17T07:58:47.045Z,26.53
2023-04-17T08:01:14.133Z,23.33
2023-04-17T08:03:41.748Z,22.07
2023-04-17T08:06:09.036Z,24.97
2023-04-17T08:08:36.275Z,23.90
2023-04-17T08:11:03.358Z,22.23
2023-04-17T08:13:32.049Z,29.67
2023-04-17T08:15:59.567Z,21.97
2023-04-17T08:18:26.656Z,23.93
2023-04-17T08:20:53.787Z,19.40
2023-04-17T08:23:20.999Z,18.13
2023-04-17T08:25:48.090Z,19.57
2023-04-17T08:28:15.136Z,26.60
2023-04-17T08:30:42.254Z,24.03
2023-04-17T08:33:09.359Z,27.47
2023-04-17T08:35:36.727Z,29.30
2023-04-17T08:38:03.791Z,18.80
2023-04-17T08:40:31.513Z,20.07
2023-04-17T08:42:59.135Z,15.43
2023-04-17T08:45:26.275Z,14.53
2023-04-17T08:47:53.422Z,18.73
2023-04-17T08:50:22.010Z,16.37
2023-04-17T08:52:50.404Z,14.60
2023-04-17T08:55:20.035Z,14.70
2023-04-17T08:58:09.158Z,16.30
2023-04-17T09:00:40.446Z,14.33
2023-04-17T09:03:08.704Z,14.83
2023-04-17T09:05:37.121Z,14.40
2023-04-17T09:08:08.770Z,17.23
2023-04-17T09:10:39.878Z,13.20
2023-04-17T09:13:07.471Z,13.47
2023-04-17T09:15:35.464Z,15.80
2023-04-17T09:18:03.202Z,15.57
2023-04-17T09:20:30.664Z,14.90
2023-04-17T09:23:02.164Z,13.50
2023-04-17T09:25:29.651Z,13.73
2023-04-17T09:28:11.659Z,17.73
2023-04-17T09:30:39.238Z,13.00
2023-04-17T09:33:07.227Z,13.70
2023-04-17T09:35:35.829Z,16.13
2023-04-17T09:38:04.141Z,12.43
2023-04-17T09:40:41.138Z,13.73
2023-04-17T09:43:10.037Z,14.97
2023-04-17T09:45:40.061Z,13.87
2023-04-17T09:48:08.667Z,12.10
2023-04-17T09:50:37.398Z,14.53
2023-04-17T09:53:06.996Z,12.10
2023-04-17T09:55:36.410Z,13.37
2023-04-17T09:58:04.190Z,11.30
2023-04-17T10:00:31.707Z,10.97
2023-04-17T10:02:59.752Z,11.23
2023-04-17T10:05:28.908Z,12.77
2023-04-17T10:07:56.264Z,16.73
2023-04-17T10:10:33.121Z,11.73
2023-04-17T10:13:01.387Z,12.30
2023-04-17T10:15:29.078Z,12.27
2023-04-17T10:17:57.583Z,12.17
2023-04-17T10:20:24.666Z,12.33
2023-04-17T10:22:55.969Z,11.80
2023-04-17T10:25:26.435Z,10.67
2023-04-17T10:27:54.781Z,13.20
2023-04-17T10:30:22.792Z,11.37
2023-04-17T10:33:09.952Z,12.70
2023-04-17T10:35:37.272Z,13.57
2023-04-17T10:38:05.753Z,11.73
2023-04-17T10:40:33.994Z,13.27
2023-04-17T10:43:06.823Z,12.60
2023-04-17T10:45:52.921Z,14.17
2023-04-17T10:48:21.269Z,10.70
2023-04-17T10:50:48.419Z,11.73
2023-04-17T10:53:33.915Z,10.70
2023-04-17T10:56:03.213Z,10.03
2023-04-17T10:58:31.765Z,11.43
2023-04-17T11:01:02.654Z,9.50
2023-04-17T11:03:31.269Z,11.30
2023-04-17T11:05:59.613Z,11.13
2023-04-17T11:08:26.714Z,13.93
2023-04-17T11:10:54.362Z,10.40
2023-04-17T11:13:21.927Z,10.63
2023-04-17T11:15:50.898Z,12.87
2023-04-17T11:18:18.444Z,11.93
2023-04-17T11:20:45.636Z,12.53
2023-04-17T11:23:13.642Z,10.53
2023-04-17T11:25:41.236Z,11.30
2023-04-17T11:28:08.286Z,12.97
2023-04-17T11:30:36.625Z,10.17
2023-04-17T11:33:07.604Z,12.97
2023-04-17T11:35:38.721Z,10.80
2023-04-17T11:38:20.700Z,11.47
2023-04-17T11:40:54.924Z,9.30
2023-04-17T11:43:23.052Z,9.93
2023-04-17T11:45:57.550Z,14.03
2023-04-17T11:48:25.932Z,8.10
2023-04-17T11:50:57.256Z,9.03
2023-04-17T11:53:24.971Z,9.33
2023-04-17T11:56:10.897Z,9.90
2023-04-17T11:58:45.544Z,13.67
2023-04-17T12:01:13.338Z,10.97
2023-04-17T12:03:41.834Z,10.27
2023-04-17T12:06:13.096Z,13.03
2023-04-17T12:08:47.077Z,9.00
2023-04-17T12:11:25.677Z,8.23
2023-04-17T12:13:53.379Z,8.93
2023-04-17T12:16:20.597Z,14.03
2023-04-17T12:18:47.729Z,9.43
2023-04-17T12:21:15.310Z,9.80
2023-04-17T12:23:42.545Z,12.30
2023-04-17T12:26:09.614Z,8.07
2023-04-17T12:28:36.869Z,8.73
2023-04-17T12:31:04.728Z,8.27
2023-04-17T12:33:34.808Z,8.50
2023-04-17T12:36:02.945Z,10.60
2023-04-17T12:38:30.595Z,8.83
2023-04-17T12:40:57.807Z,9.50
2023-04-17T12:43:24.882Z,8.97
2023-04-17T12:45:53.226Z,11.33
2023-04-17T12:48:20.484Z,12.20
2023-04-17T12:50:47.787Z,10.23
2023-04-17T12:53:17.813Z,11.17
2023-04-17T12:55:44.908Z,8.97
2023-04-17T12:58:13.939Z,9.97
2023-04-17T13:00:44.151Z,9.63
2023-04-17T13:03:12.264Z,10.87
2023-04-17T13:05:39.922Z,11.83
2023-04-17T13:08:12.285Z,9.43
2023-04-17T13:10:39.383Z,9.70
2023-04-17T13:13:06.409Z,10.73
2023-04-17T13:15:33.505Z,9.73
2023-04-17T13:18:00.755Z,11.67
2023-04-17T13:20:27.837Z,9.30
2023-04-17T13:22:55.839Z,12.17
2023-04-17T13:25:23.897Z,10.87
2023-04-17T13:27:50.904Z,14.53
2023-04-17T13:30:18.022Z,10.40
2023-04-17T13:32:45.076Z,8.63
2023-04-17T13:35:13.417Z,9.00
2023-04-17T13:37:43.300Z,10.53
2023-04-17T13:40:10.867Z,8.57
2023-04-17T13:42:38.284Z,8.57
2023-04-17T13:45:05.630Z,11.30
2023-04-17T13:47:32.829Z,9.97
2023-04-17T13:50:00.052Z,8.27
2023-04-17T13:52:27.266Z,8.03
2023-04-17T13:54:54.292Z,8.13
2023-04-17T13:57:21.367Z,7.47
2023-04-17T13:59:48.404Z,8.30
2023-04-17T14:02:15.751Z,7.90
2023-04-17T14:04:43.338Z,10.40
2023-04-17T14:07:12.784Z,8.60
2023-04-17T14:09:39.951Z,8.93
2023-04-17T14:12:07.162Z,11.87
2023-04-17T14:14:34.193Z,10.43
2023-04-17T14:17:01.301Z,9.73
2023-04-17T14:19:28.354Z,8.53
2023-04-17T14:21:55.412Z,10.23
2023-04-17T14:24:22.486Z,9.20
2023-04-17T14:26:49.543Z,11.97
2023-04-17T14:29:16.539Z,9.70
2023-04-17T14:31:43.683Z,9.30
2023-04-17T14:34:10.798Z,13.07
2023-04-17T14:36:37.830Z,12.53
2023-04-17T14:39:04.915Z,12.27
2023-04-17T14:41:34.024Z,13.17
2023-04-17T14:44:01.308Z,10.40
2023-04-17T14:46:28.493Z,8.20
2023-04-17T14:48:56.335Z,10.53
2023-04-17T14:51:24.320Z,9.30
2023-04-17T14:53:53.194Z,10.17
2023-04-17T14:56:21.482Z,12.70
2023-04-17T14:58:48.697Z,10.53
2023-04-17T15:01:15.899Z,12.50
2023-04-17T15:03:47.481Z,9.00
2023-04-17T15:06:15.476Z,11.97
2023-04-17T15:08:42.597Z,11.20
2023-04-17T15:11:09.661Z,10.77
2023-04-17T15:13:36.725Z,11.53
2023-04-17T15:16:03.873Z,10.43
2023-04-17T15:18:31.087Z,10.07
2023-04-17T15:20:58.166Z,8.87
2023-04-17T15:23:29.606Z,11.23
2023-04-17T15:25:57.798Z,11.37
2023-04-17T15:28:25.349Z,14.20
2023-04-17T15:30:52.425Z,10.53
2023-04-17T15:33:19.718Z,11.97
2023-04-17T15:35:46.863Z,9.77
2023-04-17T15:38:13.872Z,10.37
2023-04-17T15:40:40.939Z,10.90
2023-04-17T15:43:08.059Z,10.73
2023-04-17T15:45:35.111Z,10.17
2023-04-17T15:48:02.272Z,9.93
2023-04-17T15:50:29.511Z,9.37
2023-04-17T15:52:56.597Z,11.80
2023-04-17T15:55:23.645Z,11.20
2023-04-17T15:57:50.667Z,9.47
2023-04-17T16:00:18.251Z,11.97
2023-04-17T16:02:48.153Z,8.10
2023-04-17T16:05:16.116Z,9.30
2023-04-17T16:07:43.161Z,10.20
2023-04-17T16:10:14.297Z,9.07
2023-04-17T16:12:43.115Z,11.17
2023-04-17T16:15:11.608Z,8.30
2023-04-17T16:17:38.974Z,11.50
2023-04-17T16:20:06.807Z,10.60
2023-04-17T16:22:33.917Z,9.43
2023-04-17T16:25:01.790Z,7.83
2023-04-17T16:27:29.189Z,10.37
2023-04-17T16:29:56.258Z,12.53
2023-04-17T16:32:24.881Z,10.30
2023-04-17T16:34:52.441Z,7.73
2023-04-17T16:37:19.576Z,10.17
2023-04-17T16:39:47.169Z,10.23
2023-04-17T16:42:14.583Z,8.47
2023-04-17T16:44:41.679Z,8.47
2023-04-17T16:47:13.849Z,6.90
2023-04-17T16:49:41.546Z,7.87
2023-04-17T16:52:08.749Z,7.33
2023-04-17T16:54:35.831Z,11.30
2023-04-17T16:57:02.925Z,8.40
2023-04-17T16:59:29.991Z,7.63
2023-04-17T17:01:57.046Z,9.57
2023-04-17T17:04:24.323Z,11.77
2023-04-17T17:06:51.397Z,9.70
2023-04-17T17:09:20.066Z,10.93
2023-04-17T17:11:47.365Z,10.57
2023-04-17T17:14:16.046Z,11.93
2023-04-17T17:16:43.425Z,10.40
2023-04-17T17:19:10.981Z,15.70
2023-04-17T17:21:38.150Z,9.30
2023-04-17T17:24:05.383Z,10.53
2023-04-17T17:26:32.618Z,10.77
2023-04-17T17:28:59.721Z,15.10
2023-04-17T17:31:26.794Z,10.43
2023-04-17T17:33:55.157Z,11.33
2023-04-17T17:36:22.195Z,11.13
2023-04-17T17:38:55.405Z,12.43
2023-04-17T17:41:26.112Z,11.70
2023-04-17T17:43:55.904Z,16.43
2023-04-17T17:46:24.386Z,13.30
2023-04-17T17:48:51.507Z,13.17
2023-04-17T17:51:18.577Z,10.20
2023-04-17T17:53:45.867Z,11.23
2023-04-17T17:56:12.920Z,12.77
2023-04-17T17:58:39.966Z,10.50
2023-04-17T18:01:07.102Z,13.17
2023-04-17T18:03:35.374Z,10.67
2023-04-17T18:06:02.522Z,9.90
2023-04-17T18:08:29.533Z,10.00
2023-04-17T18:10:56.590Z,11.23
2023-04-17T18:13:23.607Z,15.20
2023-04-17T18:15:50.841Z,12.27
2023-04-17T18:18:17.874Z,12.47
2023-04-17T18:20:45.013Z,9.43
2023-04-17T18:23:12.019Z,12.23
2023-04-17T18:25:39.656Z,13.30
2023-04-17T18:28:06.723Z,12.63
2023-04-17T18:30:33.906Z,12.33
2023-04-17T18:33:00.988Z,11.40
2023-04-17T18:35:28.104Z,11.97
2023-04-17T18:37:56.420Z,11.60
2023-04-17T18:40:23.510Z,12.90
2023-04-17T18:42:50.594Z,14.50
2023-04-17T18:45:17.725Z,15.17
2023-04-17T18:47:44.796Z,12.90
2023-04-17T18:50:12.049Z,14.67
2023-04-17T18:52:44.398Z,14.30
2023-04-17T18:55:14.554Z,11.80
2023-04-17T18:57:41.657Z,11.73
2023-04-17T19:00:09.033Z,10.47
2023-04-17T19:02:37.032Z,14.80
2023-04-17T19:05:04.544Z,13.10
2023-04-17T19:07:31.621Z,10.87
2023-04-17T19:09:58.661Z,12.33
2023-04-17T19:12:25.767Z,11.53
2023-04-17T19:14:53.172Z,19.67
2023-04-17T19:17:20.178Z,23.87
2023-04-17T19:19:47.449Z,12.43
2023-04-17T19:22:15.954Z,11.30
2023-04-17T19:24:43.287Z,12.07
2023-04-17T19:27:10.357Z,11.70
2023-04-17T19:29:37.458Z,11.03
2023-04-17T19:32:04.915Z,10.63
2023-04-17T19:34:32.025Z,9.93
2023-04-17T19:36:59.168Z,9.13
2023-04-17T19:39:27.988Z,10.07
2023-04-17T19:41:55.076Z,13.07
2023-04-17T19:44:22.148Z,10.90
2023-04-17T19:46:49.173Z,10.00
2023-04-17T19:49:16.302Z,9.63
2023-04-17T19:51:43.400Z,10.73
2023-04-17T19:54:12.091Z,10.03
2023-04-17T19:56:39.402Z,12.43
2023-04-17T19:59:06.525Z,9.10
2023-04-17T20:01:33.678Z,11.00
2023-04-17T20:04:00.829Z,10.30
2023-04-17T20:06:28.038Z,8.43
2023-04-17T20:08:58.348Z,11.17
2023-04-17T20:11:26.102Z,11.57
2023-04-17T20:13:53.198Z,13.03
2023-04-17T20:16:20.505Z,10.03
2023-04-17T20:18:48.857Z,11.07
2023-04-17T20:21:16.063Z,10.30
2023-04-17T20:23:43.576Z,7.90
2023-04-17T20:26:11.624Z,11.10
2023-04-17T20:28:38.672Z,12.23
2023-04-17T20:31:05.960Z,9.70
2023-04-17T20:33:33.114Z,11.63
2023-04-17T20:36:00.328Z,9.93
2023-04-17T20:38:27.362Z,9.00
2023-04-17T20:40:54.413Z,7.27
2023-04-17T20:43:21.508Z,8.67
2023-04-17T20:45:49.194Z,11.07
2023-04-17T20:48:16.567Z,11.30
2023-04-17T20:50:43.974Z,9.83
2023-04-17T20:53:11.107Z,7.57
2023-04-17T20:55:38.397Z,11.60
2023-04-17T20:58:05.938Z,8.50
2023-04-17T21:00:34.560Z,9.67
2023-04-17T21:03:01.865Z,8.47
2023-04-17T21:05:29.226Z,10.03
2023-04-17T21:07:57.600Z,10.47
2023-04-17T21:10:24.726Z,9.40
2023-04-17T21:12:51.937Z,10.67
2023-04-17T21:15:18.993Z,16.87
2023-04-17T21:17:47.537Z,13.43
2023-04-17T21:20:14.890Z,10.13
2023-04-17T21:22:41.935Z,9.30
2023-04-17T21:25:09.586Z,8.30
2023-04-17T21:27:36.768Z,9.80
2023-04-17T21:30:04.376Z,11.60
2023-04-17T21:32:31.504Z,11.33
2023-04-17T21:34:58.655Z,7.63
2023-04-17T21:37:25.730Z,10.90
2023-04-17T21:39:52.847Z,8.90
2023-04-17T21:42:19.917Z,13.07
2023-04-17T21:44:47.223Z,7.83
2023-04-17T21:47:16.420Z,10.67
2023-04-17T21:49:46.227Z,10.67
2023-04-17T21:52:13.325Z,10.57
2023-04-17T21:54:40.356Z,8.73
2023-04-17T21:57:07.409Z,13.13
2023-04-17T21:59:34.992Z,8.77
2023-04-17T22:02:02.253Z,9.97
2023-04-17T22:04:29.655Z,7.63
2023-04-17T22:06:57.628Z,7.80
2023-04-17T22:09:25.269Z,12.03
2023-04-17T22:11:53.287Z,7.53
2023-04-17T22:14:20.672Z,8.57
2023-04-17T22:16:47.819Z,8.60
2023-04-17T22:19:15.026Z,10.03
2023-04-17T22:21:42.055Z,11.53
2023-04-17T22:24:09.391Z,8.57
2023-04-17T22:26:36.438Z,8.10
2023-04-17T22:29:03.483Z,8.20
2023-04-17T22:31:30.621Z,8.23
2023-04-17T22:33:57.703Z,10.30
2023-04-17T22:36:24.796Z,10.70
2023-04-17T22:38:51.861Z,10.33
2023-04-17T22:41:18.928Z,7.53
2023-04-17T22:43:49.303Z,7.53
2023-04-17T22:46:16.912Z,10.70
2023-04-17T22:48:45.047Z,7.37
2023-04-17T22:51:15.293Z,9.07
2023-04-17T22:53:43.165Z,6.97
2023-04-17T22:56:12.326Z,6.87
2023-04-17T22:58:39.359Z,9.47
2023-04-17T23:01:06.473Z,7.47
2023-04-17T23:03:35.499Z,6.53
2023-04-17T23:06:03.407Z,6.50
2023-04-17T23:08:30.963Z,6.50
2023-04-17T23:10:59.684Z,7.63
2023-04-17T23:13:27.558Z,6.13
2023-04-17T23:15:54.687Z,5.63
2023-04-17T23:18:21.845Z,7.83
2023-04-17T23:20:49.007Z,7.37
2023-04-17T23:23:16.203Z,6.23
2023-04-17T23:25:43.402Z,6.10
2023-04-17T23:28:10.832Z,10.03
2023-04-17T23:30:37.907Z,5.60
2023-04-17T23:33:04.961Z,6.27
2023-04-17T23:35:32.005Z,6.33
2023-04-17T23:37:59.070Z,6.90
2023-04-17T23:40:27.995Z,6.73
2023-04-17T23:42:55.282Z,6.17
2023-04-17T23:45:22.697Z,5.73
2023-04-17T23:47:50.059Z,5.37
2023-04-17T23:50:17.245Z,5.87
2023-04-17T23:52:44.302Z,6.07
2023-04-17T23:55:11.484Z,6.83
2023-04-17T23:57:38.557Z,5.63
